Time;durP1;ratioP1;P1;durP2;ratioP2;P2;SDS_P1;SDS_P2;PMS_P1;PMS_P2;Temp;Humidity;BMP_temperature;BMP_pressure;BME280_temperature;BME280_humidity;BME280_pressure;Samples;Min_cycle;Max_cycle;Signal;HPM_P1;HPM_P2
2022/03/24 00:01:43;;;;;;;83.78;36.20;;;;;;;;;;5018181;28;20030;-81
2022/03/24 00:04:10;;;;;;;78.90;37.88;;;;;;;;;;4997424;28;20113;-81
2022/03/24 00:06:37;;;;;;;86.72;39.97;;;;;;;;;;4979583;28;20033;-81
2022/03/24 00:09:03;;;;;;;91.97;39.60;;;;;;;;;;4981506;28;20030;-81
2022/03/24 00:11:30;;;;;;;91.00;39.38;;;;;;;;;;5000326;28;20485;-81
2022/03/24 00:13:56;;;;;;;89.63;39.85;;;;;;;;;;5006554;28;20026;-81
2022/03/24 00:16:22;;;;;;;88.15;39.25;;;;;;;;;;5001378;28;20033;-81
2022/03/24 00:18:48;;;;;;;85.65;37.97;;;;;;;;;;4983880;28;20068;-81
2022/03/24 00:21:17;;;;;;;88.75;39.00;;;;;;;;;;4998280;28;20038;-81
2022/03/24 00:23:43;;;;;;;87.47;40.22;;;;;;;;;;5002026;28;20029;-81
2022/03/24 00:26:09;;;;;;;89.78;38.88;;;;;;;;;;4987438;28;20084;-81
2022/03/24 00:28:36;;;;;;;89.57;38.72;;;;;;;;;;4989408;28;20386;-81
2022/03/24 00:31:02;;;;;;;92.13;39.80;;;;;;;;;;4985486;28;20030;-81
2022/03/24 00:33:29;;;;;;;92.68;40.30;;;;;;;;;;5000768;28;20041;-81
2022/03/24 00:35:56;;;;;;;89.22;38.00;;;;;;;;;;4983492;28;20180;-81
2022/03/24 00:38:22;;;;;;;79.82;36.20;;;;;;;;;;4983422;28;20352;-81
2022/03/24 00:40:51;;;;;;;86.60;37.25;;;;;;;;;;4995111;28;20393;-81
2022/03/24 00:43:17;;;;;;;90.15;40.00;;;;;;;;;;5006704;28;20556;-81
2022/03/24 00:45:43;;;;;;;96.75;41.90;;;;;;;;;;4989045;28;20076;-81
2022/03/24 00:48:10;;;;;;;93.78;41.83;;;;;;;;;;4990491;28;20037;-81
2022/03/24 00:50:36;;;;;;;104.15;43.83;;;;;;;;;;4991244;28;20030;-80
2022/03/24 00:53:03;;;;;;;97.20;43.33;;;;;;;;;;5009213;28;20072;-82
2022/03/24 00:55:30;;;;;;;100.47;40.88;;;;;;;;;;4997389;28;20041;-81
2022/03/24 00:57:56;;;;;;;95.18;42.08;;;;;;;;;;5006222;28;20034;-81
2022/03/24 01:00:25;;;;;;;104.95;42.17;;;;;;;;;;4990322;28;20084;-81
2022/03/24 01:02:52;;;;;;;94.43;42.80;;;;;;;;;;4991634;28;20026;-81
2022/03/24 01:05:19;;;;;;;101.05;43.03;;;;;;;;;;4993792;28;20044;-81
2022/03/24 01:07:46;;;;;;;106.15;42.60;;;;;;;;;;4994142;28;20037;-81
2022/03/24 01:10:14;;;;;;;100.65;42.35;;;;;;;;;;4993425;28;20481;-81
2022/03/24 01:12:41;;;;;;;107.00;43.85;;;;;;;;;;4989024;28;20033;-81
2022/03/24 01:15:11;;;;;;;101.70;43.83;;;;;;;;;;4990484;28;21310;-81
2022/03/24 01:17:37;;;;;;;98.68;43.40;;;;;;;;;;4988809;28;20059;-81
2022/03/24 01:20:05;;;;;;;115.70;43.78;;;;;;;;;;4990283;28;20053;-81
2022/03/24 01:22:31;;;;;;;102.50;43.78;;;;;;;;;;4990058;28;20026;-81
2022/03/24 01:24:58;;;;;;;105.15;44.35;;;;;;;;;;5000453;28;20030;-81
2022/03/24 01:27:26;;;;;;;111.55;45.03;;;;;;;;;;5009324;28;20037;-81
2022/03/24 01:29:54;;;;;;;97.03;42.08;;;;;;;;;;5004324;28;20025;-81
2022/03/24 01:32:20;;;;;;;97.90;42.38;;;;;;;;;;4987379;28;20025;-81
2022/03/24 01:34:46;;;;;;;95.90;41.72;;;;;;;;;;4991437;28;20678;-81
2022/03/24 01:37:12;;;;;;;94.90;42.95;;;;;;;;;;5006498;28;20057;-81
2022/03/24 01:39:38;;;;;;;101.15;44.05;;;;;;;;;;4990142;28;20164;-80
2022/03/24 01:42:05;;;;;;;103.25;43.03;;;;;;;;;;4993929;28;20029;-81
2022/03/24 01:44:31;;;;;;;112.82;43.60;;;;;;;;;;5005662;28;20135;-81
2022/03/24 01:47:02;;;;;;;112.95;44.88;;;;;;;;;;4988101;28;20385;-81
2022/03/24 01:49:30;;;;;;;104.97;45.55;;;;;;;;;;4988225;28;20025;-80
2022/03/24 01:51:56;;;;;;;100.38;41.58;;;;;;;;;;4999676;28;20030;-81
2022/03/24 01:54:24;;;;;;;108.75;43.03;;;;;;;;;;5003692;28;20906;-81
2022/03/24 01:56:53;;;;;;;106.45;44.00;;;;;;;;;;4998793;28;20100;-81
2022/03/24 01:59:20;;;;;;;100.30;43.25;;;;;;;;;;4985097;28;20552;-81
2022/03/24 02:01:46;;;;;;;115.10;42.70;;;;;;;;;;5001510;28;20030;-81
2022/03/24 02:04:19;;;;;;;98.72;42.47;;;;;;;;;;4983069;28;20390;-81
2022/03/24 02:06:45;;;;;;;112.25;44.70;;;;;;;;;;4996944;28;20038;-81
2022/03/24 02:09:12;;;;;;;111.25;45.75;;;;;;;;;;5005041;28;20500;-81
2022/03/24 02:11:40;;;;;;;101.85;43.22;;;;;;;;;;5002489;28;20106;-81
2022/03/24 02:14:06;;;;;;;122.78;46.25;;;;;;;;;;4984887;28;20088;-81
2022/03/24 02:16:38;;;;;;;112.35;46.47;;;;;;;;;;4992054;28;20217;-81
2022/03/24 02:19:17;;;;;;;104.85;43.97;;;;;;;;;;5004447;28;20036;-81
2022/03/24 02:21:44;;;;;;;108.55;44.55;;;;;;;;;;4989381;28;20053;-81
2022/03/24 02:24:12;;;;;;;117.43;46.95;;;;;;;;;;4986674;28;20034;-81
2022/03/24 02:26:42;;;;;;;119.47;46.72;;;;;;;;;;4992404;28;20030;-81
2022/03/24 02:29:10;;;;;;;110.70;45.83;;;;;;;;;;4986996;28;20125;-81
2022/03/24 02:31:49;;;;;;;119.70;47.35;;;;;;;;;;4988742;28;20037;-81
2022/03/24 02:37:02;;;;;;;123.32;48.08;;;;;;;;;;4999802;28;20105;-81
2022/03/24 02:39:29;;;;;;;118.72;46.78;;;;;;;;;;4995067;28;20213;-81
2022/03/24 02:41:56;;;;;;;127.53;52.13;;;;;;;;;;5006963;28;20045;-81
2022/03/24 02:44:24;;;;;;;116.28;44.55;;;;;;;;;;4986920;28;20034;-81
2022/03/24 02:46:51;;;;;;;111.57;43.78;;;;;;;;;;5005165;28;20402;-81
2022/03/24 02:49:18;;;;;;;124.28;46.75;;;;;;;;;;4996118;28;20052;-81
2022/03/24 02:51:44;;;;;;;113.07;45.65;;;;;;;;;;4995244;28;20481;-81
2022/03/24 02:54:10;;;;;;;102.78;43.42;;;;;;;;;;4999713;28;20100;-82
2022/03/24 02:56:42;;;;;;;127.43;48.22;;;;;;;;;;4984760;28;20026;-81
2022/03/24 02:59:08;;;;;;;125.43;49.42;;;;;;;;;;5001415;28;20030;-81
2022/03/24 03:01:35;;;;;;;128.60;48.00;;;;;;;;;;4985721;28;20044;-81
2022/03/24 03:04:02;;;;;;;119.60;48.55;;;;;;;;;;4988611;28;20025;-81
2022/03/24 03:06:34;;;;;;;117.18;48.05;;;;;;;;;;5004230;28;20037;-81
2022/03/24 03:09:02;;;;;;;123.93;47.67;;;;;;;;;;4990441;28;20613;-81
2022/03/24 03:11:31;;;;;;;120.38;47.58;;;;;;;;;;5000270;28;20029;-80
2022/03/24 03:13:58;;;;;;;122.00;45.45;;;;;;;;;;5000449;28;20058;-81
2022/03/24 03:16:25;;;;;;;124.28;47.72;;;;;;;;;;4999087;28;20044;-81
2022/03/24 03:18:51;;;;;;;125.40;46.67;;;;;;;;;;5001459;28;20743;-81
2022/03/24 03:21:17;;;;;;;119.55;44.78;;;;;;;;;;4987985;28;20116;-81
2022/03/24 03:23:44;;;;;;;115.65;43.75;;;;;;;;;;5001201;28;20073;-81
2022/03/24 03:26:11;;;;;;;116.40;42.45;;;;;;;;;;4985883;28;20033;-81
2022/03/24 03:28:38;;;;;;;108.05;44.45;;;;;;;;;;5004687;28;20034;-81
2022/03/24 03:31:05;;;;;;;112.35;45.00;;;;;;;;;;4984731;28;20479;-81
2022/03/24 03:33:31;;;;;;;117.43;44.60;;;;;;;;;;5001730;28;20034;-82
2022/03/24 03:35:58;;;;;;;107.05;43.47;;;;;;;;;;4983621;28;20061;-81
2022/03/24 03:38:24;;;;;;;121.28;44.17;;;;;;;;;;4982768;28;20482;-81
2022/03/24 03:40:50;;;;;;;106.25;41.80;;;;;;;;;;5002755;28;20022;-81
2022/03/24 03:43:17;;;;;;;116.35;44.97;;;;;;;;;;5001591;28;20036;-81
2022/03/24 03:45:44;;;;;;;106.60;41.60;;;;;;;;;;5000409;28;20129;-82
2022/03/24 03:48:10;;;;;;;102.78;41.90;;;;;;;;;;5000504;28;20037;-82
2022/03/24 03:50:37;;;;;;;116.50;45.17;;;;;;;;;;5003391;28;20685;-82
2022/03/24 03:53:03;;;;;;;102.65;39.35;;;;;;;;;;5004889;28;20430;-82
2022/03/24 03:55:29;;;;;;;100.53;41.13;;;;;;;;;;4985266;28;20474;-82
2022/03/24 03:57:56;;;;;;;110.78;43.80;;;;;;;;;;4986123;28;20038;-81
2022/03/24 04:03:06;;;;;;;118.82;46.42;;;;;;;;;;4983574;28;20217;-81
2022/03/24 04:05:33;;;;;;;104.63;42.30;;;;;;;;;;4984513;28;20026;-81
2022/03/24 04:07:59;;;;;;;117.63;47.65;;;;;;;;;;4986597;28;20065;-81
2022/03/24 04:10:27;;;;;;;123.38;46.75;;;;;;;;;;4984008;28;20036;-81
2022/03/24 04:12:55;;;;;;;119.30;45.78;;;;;;;;;;4981654;28;20025;-81
2022/03/24 04:15:21;;;;;;;112.35;45.15;;;;;;;;;;4985430;28;20037;-80
2022/03/24 04:17:48;;;;;;;119.80;45.72;;;;;;;;;;5000491;28;20037;-81
2022/03/24 04:20:20;;;;;;;112.10;44.50;;;;;;;;;;4982010;28;20171;-81
2022/03/24 04:22:48;;;;;;;108.40;44.88;;;;;;;;;;4967257;28;20026;-81
2022/03/24 04:25:14;;;;;;;131.90;46.65;;;;;;;;;;4962790;28;20169;-81
2022/03/24 04:27:41;;;;;;;117.50;45.88;;;;;;;;;;4982031;28;20076;-81
2022/03/24 04:30:08;;;;;;;121.72;47.47;;;;;;;;;;4963561;28;20034;-81
2022/03/24 04:32:34;;;;;;;128.43;46.63;;;;;;;;;;4966952;28;20061;-82
2022/03/24 04:35:00;;;;;;;119.93;46.67;;;;;;;;;;4966761;28;20045;-81
2022/03/24 04:37:27;;;;;;;132.27;46.88;;;;;;;;;;4979521;28;20042;-82
2022/03/24 04:39:53;;;;;;;130.80;49.92;;;;;;;;;;4979546;28;20054;-81
2022/03/24 04:42:20;;;;;;;134.57;48.67;;;;;;;;;;4980392;28;20022;-81
2022/03/24 04:44:46;;;;;;;131.40;49.58;;;;;;;;;;4964969;28;20518;-80
2022/03/24 04:47:12;;;;;;;132.48;51.03;;;;;;;;;;4964251;28;20035;-81
2022/03/24 04:49:38;;;;;;;125.22;47.97;;;;;;;;;;4965810;28;20613;-81
2022/03/24 04:52:05;;;;;;;130.20;50.22;;;;;;;;;;4956914;28;20336;-81
2022/03/24 04:54:31;;;;;;;133.30;49.40;;;;;;;;;;4965885;28;20053;-81
2022/03/24 04:56:57;;;;;;;140.40;50.58;;;;;;;;;;4983420;28;20042;-81
2022/03/24 04:59:23;;;;;;;147.70;57.80;;;;;;;;;;4979484;28;20038;-81
2022/03/24 05:01:49;;;;;;;134.50;49.35;;;;;;;;;;4983607;28;20045;-81
2022/03/24 05:04:15;;;;;;;131.45;47.30;;;;;;;;;;4979354;28;20043;-81
2022/03/24 05:06:42;;;;;;;133.52;48.67;;;;;;;;;;4965169;28;20035;-82
2022/03/24 05:09:08;;;;;;;130.68;47.60;;;;;;;;;;4978253;28;20470;-81
2022/03/24 05:11:35;;;;;;;118.82;47.67;;;;;;;;;;4966017;28;20022;-81
2022/03/24 05:14:04;;;;;;;114.45;45.25;;;;;;;;;;4982324;28;20026;-81
2022/03/24 05:16:30;;;;;;;125.85;48.20;;;;;;;;;;4963030;28;20394;-81
2022/03/24 05:18:56;;;;;;;122.60;46.53;;;;;;;;;;4979167;28;20026;-82
2022/03/24 05:21:36;;;;;;;118.85;45.42;;;;;;;;;;5001575;28;20791;-82
2022/03/24 05:24:03;;;;;;;116.72;44.42;;;;;;;;;;4984948;28;20156;-81
2022/03/24 05:26:29;;;;;;;114.75;42.40;;;;;;;;;;4999747;28;20238;-81
2022/03/24 05:28:55;;;;;;;109.65;45.22;;;;;;;;;;4988690;28;20061;-82
2022/03/24 05:31:21;;;;;;;121.75;44.70;;;;;;;;;;4987650;28;20072;-82
2022/03/24 05:33:47;;;;;;;123.57;47.22;;;;;;;;;;5000335;28;20125;-81
2022/03/24 05:36:15;;;;;;;129.13;48.67;;;;;;;;;;4989902;28;20597;-81
2022/03/24 05:38:41;;;;;;;127.65;49.13;;;;;;;;;;4998360;28;20155;-81
2022/03/24 05:41:13;;;;;;;115.70;46.38;;;;;;;;;;5001082;28;20200;-81
2022/03/24 05:43:39;;;;;;;116.40;45.35;;;;;;;;;;4986103;28;20109;-81
2022/03/24 05:46:05;;;;;;;131.57;47.50;;;;;;;;;;4987303;28;20073;-81
2022/03/24 05:48:33;;;;;;;116.90;46.78;;;;;;;;;;4989707;28;20034;-81
2022/03/24 05:51:00;;;;;;;131.98;48.70;;;;;;;;;;4986971;28;20072;-81
2022/03/24 05:53:26;;;;;;;122.90;46.30;;;;;;;;;;5004847;28;20426;-81
2022/03/24 05:55:52;;;;;;;126.03;46.65;;;;;;;;;;5004195;28;20036;-81
2022/03/24 05:58:20;;;;;;;135.73;48.75;;;;;;;;;;4987927;28;20030;-81
2022/03/24 06:00:47;;;;;;;134.32;50.58;;;;;;;;;;4987115;28;20037;-82
2022/03/24 06:03:14;;;;;;;130.95;50.10;;;;;;;;;;4990087;28;20060;-81
2022/03/24 06:05:40;;;;;;;120.32;47.40;;;;;;;;;;5001797;28;20454;-81
2022/03/24 06:08:07;;;;;;;145.85;50.55;;;;;;;;;;4989662;28;20025;-81
2022/03/24 06:10:33;;;;;;;137.95;51.05;;;;;;;;;;4998722;28;20165;-81
2022/03/24 06:12:59;;;;;;;143.85;54.22;;;;;;;;;;4997648;28;20066;-81
2022/03/24 06:15:26;;;;;;;138.63;55.83;;;;;;;;;;4996813;28;20026;-81
2022/03/24 06:17:52;;;;;;;146.55;54.38;;;;;;;;;;4980056;28;20042;-81
2022/03/24 06:20:24;;;;;;;142.52;53.25;;;;;;;;;;4981168;28;20042;-81
2022/03/24 06:22:51;;;;;;;128.55;49.95;;;;;;;;;;4984074;28;20101;-80
2022/03/24 06:25:18;;;;;;;130.35;49.60;;;;;;;;;;4982454;28;20096;-81
2022/03/24 06:27:46;;;;;;;133.98;52.42;;;;;;;;;;5002471;28;20069;-81
2022/03/24 06:30:13;;;;;;;141.25;56.15;;;;;;;;;;4990449;28;20489;-81
2022/03/24 06:32:39;;;;;;;143.23;53.88;;;;;;;;;;5005730;28;20093;-80
2022/03/24 06:35:05;;;;;;;138.25;52.97;;;;;;;;;;4990597;28;20045;-81
2022/03/24 06:37:39;;;;;;;121.32;51.45;;;;;;;;;;5003724;28;20389;-81
2022/03/24 06:40:06;;;;;;;110.88;49.05;;;;;;;;;;5004499;28;20084;-82
2022/03/24 06:42:32;;;;;;;118.50;51.50;;;;;;;;;;4999487;28;20026;-82
2022/03/24 06:44:58;;;;;;;108.30;48.28;;;;;;;;;;5003047;28;20467;-82
2022/03/24 06:47:24;;;;;;;104.75;45.53;;;;;;;;;;4983195;28;20038;-81
2022/03/24 06:49:50;;;;;;;99.57;45.78;;;;;;;;;;4987972;28;20092;-81
2022/03/24 06:52:16;;;;;;;111.90;48.78;;;;;;;;;;4984824;28;20117;-81
2022/03/24 06:54:42;;;;;;;106.72;47.88;;;;;;;;;;5004617;28;20033;-81
2022/03/24 06:57:14;;;;;;;102.85;45.28;;;;;;;;;;4996132;28;20058;-82
2022/03/24 06:59:40;;;;;;;99.65;45.30;;;;;;;;;;4983310;28;20082;-81
2022/03/24 07:02:07;;;;;;;92.95;44.40;;;;;;;;;;5000914;28;20022;-81
2022/03/24 07:04:33;;;;;;;95.40;44.15;;;;;;;;;;5006254;28;20493;-82
2022/03/24 07:06:59;;;;;;;95.80;43.13;;;;;;;;;;4989877;28;20133;-81
2022/03/24 07:09:25;;;;;;;93.10;44.13;;;;;;;;;;4985456;28;20030;-81
2022/03/24 07:11:51;;;;;;;92.07;42.97;;;;;;;;;;4986491;28;20038;-81
2022/03/24 07:14:17;;;;;;;91.35;41.65;;;;;;;;;;5003210;28;20034;-80
2022/03/24 07:16:43;;;;;;;90.25;42.47;;;;;;;;;;4997876;28;20033;-81
2022/03/24 07:19:09;;;;;;;92.25;42.80;;;;;;;;;;4983546;28;20025;-80
2022/03/24 07:21:36;;;;;;;82.75;40.20;;;;;;;;;;5004270;28;20603;-81
2022/03/24 07:24:03;;;;;;;97.10;42.05;;;;;;;;;;5004511;28;23019;-81
2022/03/24 07:26:30;;;;;;;87.13;41.78;;;;;;;;;;5004629;28;20037;-82
2022/03/24 07:28:56;;;;;;;80.25;39.80;;;;;;;;;;5001507;28;20052;-82
2022/03/24 07:31:23;;;;;;;87.10;39.95;;;;;;;;;;4984732;28;20476;-82
2022/03/24 07:33:49;;;;;;;76.25;38.65;;;;;;;;;;4985781;28;20398;-81
2022/03/24 07:36:16;;;;;;;79.75;39.88;;;;;;;;;;4998962;28;20509;-82
2022/03/24 07:38:42;;;;;;;78.95;39.95;;;;;;;;;;4983126;28;20058;-81
2022/03/24 07:41:09;;;;;;;76.95;40.25;;;;;;;;;;5000063;28;20053;-81
2022/03/24 07:43:35;;;;;;;73.90;39.40;;;;;;;;;;4985566;28;20548;-82
2022/03/24 07:46:01;;;;;;;84.13;39.55;;;;;;;;;;5001720;28;20033;-81
2022/03/24 07:48:27;;;;;;;79.90;42.20;;;;;;;;;;5001203;28;20045;-82
2022/03/24 07:50:55;;;;;;;79.78;40.92;;;;;;;;;;4983313;28;20639;-82
2022/03/24 07:53:40;;;;;;;80.63;41.42;;;;;;;;;;5002222;28;20409;-81
2022/03/24 07:56:07;;;;;;;74.35;38.50;;;;;;;;;;4982117;28;20025;-81
2022/03/24 07:58:33;;;;;;;70.63;39.92;;;;;;;;;;4988538;28;20033;-81
2022/03/24 08:00:59;;;;;;;83.90;41.42;;;;;;;;;;4998601;28;20056;-81
2022/03/24 08:03:26;;;;;;;76.78;39.22;;;;;;;;;;4998509;28;20073;-82
2022/03/24 08:05:52;;;;;;;76.22;37.10;;;;;;;;;;5002013;28;20030;-82
2022/03/24 08:08:19;;;;;;;73.00;37.33;;;;;;;;;;4999012;28;20689;-81
2022/03/24 08:10:49;;;;;;;70.53;38.65;;;;;;;;;;4981823;28;20026;-81
2022/03/24 08:13:16;;;;;;;78.38;40.83;;;;;;;;;;4994180;28;20116;-81
2022/03/24 08:15:43;;;;;;;75.57;41.40;;;;;;;;;;5001872;28;20060;-80
2022/03/24 08:18:09;;;;;;;70.95;38.08;;;;;;;;;;4984971;28;20079;-81
2022/03/24 08:20:36;;;;;;;71.65;39.83;;;;;;;;;;5002480;28;20050;-81
2022/03/24 08:23:03;;;;;;;73.63;39.60;;;;;;;;;;4983027;28;20025;-81
2022/03/24 08:25:29;;;;;;;73.65;41.22;;;;;;;;;;4982145;28;20517;-80
2022/03/24 08:27:55;;;;;;;73.38;40.15;;;;;;;;;;4986682;28;20042;-81
2022/03/24 08:30:22;;;;;;;77.78;38.15;;;;;;;;;;4995755;28;20502;-81
2022/03/24 08:32:48;;;;;;;65.18;36.25;;;;;;;;;;4984505;28;20041;-81
2022/03/24 08:35:14;;;;;;;66.53;36.03;;;;;;;;;;4998045;28;20037;-81
2022/03/24 08:37:40;;;;;;;62.75;35.28;;;;;;;;;;4995920;28;20112;-82
2022/03/24 08:40:07;;;;;;;67.00;36.42;;;;;;;;;;4981494;28;20022;-81
2022/03/24 08:42:35;;;;;;;67.85;35.65;;;;;;;;;;4985897;28;20357;-81
2022/03/24 08:45:02;;;;;;;67.53;36.67;;;;;;;;;;5000769;28;20486;-81
2022/03/24 08:47:28;;;;;;;69.07;37.42;;;;;;;;;;5003110;28;20088;-81
2022/03/24 08:49:54;;;;;;;69.20;37.47;;;;;;;;;;4998936;28;20041;-81
2022/03/24 08:52:21;;;;;;;78.25;38.95;;;;;;;;;;4993067;28;20030;-81
2022/03/24 08:54:47;;;;;;;70.85;39.10;;;;;;;;;;5001684;28;20513;-81
2022/03/24 08:57:13;;;;;;;77.03;39.25;;;;;;;;;;4984188;28;20026;-81
2022/03/24 08:59:39;;;;;;;80.07;40.90;;;;;;;;;;4984282;28;20458;-81
2022/03/24 09:02:06;;;;;;;69.13;39.33;;;;;;;;;;4982985;28;20030;-79
2022/03/24 09:04:32;;;;;;;83.38;41.45;;;;;;;;;;4994112;28;20018;-80
2022/03/24 09:06:58;;;;;;;75.80;38.40;;;;;;;;;;4983225;28;20062;-79
2022/03/24 09:09:24;;;;;;;67.20;37.45;;;;;;;;;;4987120;28;20045;-80
2022/03/24 09:11:50;;;;;;;67.38;37.65;;;;;;;;;;4985382;28;20052;-79
2022/03/24 09:14:17;;;;;;;73.93;39.45;;;;;;;;;;4988306;28;20048;-79
2022/03/24 09:16:43;;;;;;;74.22;39.78;;;;;;;;;;4981337;28;20054;-80
2022/03/24 09:19:10;;;;;;;66.43;38.28;;;;;;;;;;4993656;28;20545;-79
2022/03/24 09:21:36;;;;;;;76.00;39.72;;;;;;;;;;5002735;28;20504;-79
2022/03/24 09:24:02;;;;;;;74.22;40.03;;;;;;;;;;4987514;28;20026;-79
2022/03/24 09:26:28;;;;;;;68.25;39.78;;;;;;;;;;4988683;28;20034;-80
2022/03/24 09:28:54;;;;;;;73.78;38.25;;;;;;;;;;5003742;28;20095;-80
2022/03/24 09:31:21;;;;;;;66.35;38.38;;;;;;;;;;5001544;28;20478;-79
2022/03/24 09:33:47;;;;;;;64.75;39.47;;;;;;;;;;5001926;28;20120;-81
2022/03/24 09:36:14;;;;;;;75.78;38.60;;;;;;;;;;4986859;28;20517;-81
2022/03/24 09:38:40;;;;;;;67.72;38.88;;;;;;;;;;4979047;28;20030;-82
2022/03/24 09:41:06;;;;;;;70.38;39.67;;;;;;;;;;4990143;28;20524;-81
2022/03/24 09:43:34;;;;;;;80.00;40.63;;;;;;;;;;4971767;28;20034;-81
2022/03/24 09:46:01;;;;;;;66.35;38.60;;;;;;;;;;5002640;28;20068;-82
2022/03/24 09:48:27;;;;;;;72.80;39.60;;;;;;;;;;5002378;28;20362;-80
2022/03/24 09:50:54;;;;;;;60.92;37.47;;;;;;;;;;5001990;28;20157;-80
2022/03/24 09:53:20;;;;;;;66.75;38.75;;;;;;;;;;5001927;28;20411;-80
2022/03/24 09:55:47;;;;;;;65.55;39.20;;;;;;;;;;5000766;28;20038;-80
2022/03/24 09:58:13;;;;;;;87.53;40.13;;;;;;;;;;4988701;28;20073;-80
2022/03/24 10:00:40;;;;;;;73.25;40.08;;;;;;;;;;4983558;28;20054;-80
2022/03/24 10:03:07;;;;;;;76.13;41.83;;;;;;;;;;4988415;28;20064;-80
2022/03/24 10:05:33;;;;;;;65.75;40.13;;;;;;;;;;4981830;28;20038;-80
2022/03/24 10:08:04;;;;;;;65.80;38.63;;;;;;;;;;4967833;28;20125;-80
2022/03/24 10:10:36;;;;;;;65.88;39.13;;;;;;;;;;4996938;28;20044;-80
2022/03/24 10:13:02;;;;;;;63.95;40.80;;;;;;;;;;5004702;28;20040;-80
2022/03/24 10:15:29;;;;;;;61.88;38.65;;;;;;;;;;5002126;28;20651;-80
2022/03/24 10:17:58;;;;;;;67.55;39.95;;;;;;;;;;4981974;28;20501;-80
2022/03/24 10:20:28;;;;;;;77.15;42.88;;;;;;;;;;4999324;28;20127;-80
2022/03/24 10:22:54;;;;;;;72.47;40.40;;;;;;;;;;4995887;28;20401;-80
2022/03/24 10:25:22;;;;;;;70.80;40.45;;;;;;;;;;5003272;28;20481;-80
2022/03/24 10:27:51;;;;;;;69.65;41.08;;;;;;;;;;4993632;28;20067;-80
2022/03/24 10:30:24;;;;;;;77.45;40.17;;;;;;;;;;4986312;28;20113;-81
2022/03/24 10:32:55;;;;;;;66.57;40.20;;;;;;;;;;5001951;28;20022;-81
2022/03/24 10:35:21;;;;;;;74.65;42.05;;;;;;;;;;4986454;28;20507;-81
2022/03/24 10:37:48;;;;;;;66.43;39.40;;;;;;;;;;4986280;28;20034;-81
2022/03/24 10:40:14;;;;;;;66.43;40.05;;;;;;;;;;4982373;28;20038;-81
2022/03/24 10:42:41;;;;;;;69.47;39.65;;;;;;;;;;4987277;28;20037;-81
2022/03/24 10:45:09;;;;;;;75.25;39.35;;;;;;;;;;4990062;28;20393;-80
2022/03/24 10:47:37;;;;;;;68.30;37.22;;;;;;;;;;4987008;28;20567;-81
2022/03/24 10:50:20;;;;;;;60.17;36.47;;;;;;;;;;4981656;28;20108;-80
2022/03/24 10:52:46;;;;;;;65.10;37.30;;;;;;;;;;4994434;28;20046;-81
2022/03/24 10:55:29;;;;;;;76.28;37.25;;;;;;;;;;4998278;28;20105;-80
2022/03/24 10:57:55;;;;;;;;;;;;;;;;;;5001221;28;20030;-80
2022/03/24 11:00:22;;;;;;;60.78;34.10;;;;;;;;;;4988628;28;19924;-80
2022/03/24 11:02:48;;;;;;;66.53;36.15;;;;;;;;;;4980187;28;20402;-80
2022/03/24 11:05:14;;;;;;;59.03;32.90;;;;;;;;;;5002013;28;20041;-81
2022/03/24 11:07:40;;;;;;;63.83;33.67;;;;;;;;;;5000132;28;20108;-80
2022/03/24 11:10:13;;;;;;;61.05;33.53;;;;;;;;;;4986794;28;20557;-80
2022/03/24 11:12:39;;;;;;;52.17;33.22;;;;;;;;;;4979681;28;20033;-80
2022/03/24 11:15:07;;;;;;;58.40;33.72;;;;;;;;;;4982488;28;20034;-80
2022/03/24 11:17:34;;;;;;;65.80;35.28;;;;;;;;;;5002822;28;20037;-80
2022/03/24 11:20:20;;;;;;;52.83;34.42;;;;;;;;;;4983009;28;20018;-80
2022/03/24 11:23:04;;;;;;;61.35;33.80;;;;;;;;;;4998311;28;20042;-81
2022/03/24 11:25:30;;;;;;;56.60;32.92;;;;;;;;;;4995403;28;20414;-80
2022/03/24 11:27:57;;;;;;;52.65;32.40;;;;;;;;;;4987012;28;20076;-80
2022/03/24 11:30:24;;;;;;;54.58;33.42;;;;;;;;;;5001933;28;20037;-80
2022/03/24 11:32:52;;;;;;;60.13;33.85;;;;;;;;;;4985796;28;20552;-79
2022/03/24 11:35:19;;;;;;;56.33;32.13;;;;;;;;;;4983901;28;20071;-79
2022/03/24 11:37:45;;;;;;;53.80;33.95;;;;;;;;;;5004200;28;20018;-79
2022/03/24 11:40:12;;;;;;;59.08;35.42;;;;;;;;;;5001260;28;20037;-80
2022/03/24 11:42:54;;;;;;;58.40;33.47;;;;;;;;;;4980976;28;20041;-80
2022/03/24 11:45:22;;;;;;;56.75;34.40;;;;;;;;;;5003480;28;20494;-84
2022/03/24 11:48:09;;;;;;;64.90;36.67;;;;;;;;;;4990270;28;20045;-80
2022/03/24 11:50:35;;;;;;;53.38;34.00;;;;;;;;;;4985780;28;20381;-80
2022/03/24 11:53:10;;;;;;;62.13;35.95;;;;;;;;;;4991162;28;20022;-80
2022/03/24 11:55:37;;;;;;;60.47;38.25;;;;;;;;;;5004761;28;20271;-80
2022/03/24 11:58:04;;;;;;;53.40;37.00;;;;;;;;;;4998568;28;20050;-79
2022/03/24 12:00:30;;;;;;;62.70;37.72;;;;;;;;;;4998950;28;20033;-79
2022/03/24 12:03:00;;;;;;;58.40;37.25;;;;;;;;;;4982513;28;20044;-80
2022/03/24 12:05:45;;;;;;;56.70;35.75;;;;;;;;;;4997236;28;20026;-80
2022/03/24 12:08:11;;;;;;;57.55;38.13;;;;;;;;;;4976220;28;20034;-81
2022/03/24 12:10:37;;;;;;;56.00;36.10;;;;;;;;;;4998250;28;20040;-81
2022/03/24 12:13:24;;;;;;;63.97;38.35;;;;;;;;;;4994067;28;20042;-80
2022/03/24 12:16:21;;;;;;;54.95;35.08;;;;;;;;;;4983554;28;20037;-80
2022/03/24 12:18:48;;;;;;;54.10;34.63;;;;;;;;;;4988241;28;20169;-80
2022/03/24 12:21:23;;;;;;;52.47;32.47;;;;;;;;;;4997474;28;20025;-80
2022/03/24 12:24:08;;;;;;;55.80;33.47;;;;;;;;;;4984275;28;20026;-80
2022/03/24 12:26:37;;;;;;;57.07;35.83;;;;;;;;;;4999348;28;20042;-80
2022/03/24 12:29:13;;;;;;;48.65;32.72;;;;;;;;;;4987684;28;20516;-81
2022/03/24 12:31:39;;;;;;;;;;;;;;;;;;5000414;28;20040;-80
2022/03/24 12:34:14;;;;;;;51.92;31.35;;;;;;;;;;5002806;28;19909;-80
2022/03/24 12:36:40;;;;;;;58.38;31.20;;;;;;;;;;4985655;28;20458;-80
2022/03/24 12:39:08;;;;;;;53.75;32.70;;;;;;;;;;4999713;28;20474;-80
2022/03/24 12:41:35;;;;;;;54.67;32.05;;;;;;;;;;4971305;28;20088;-80
2022/03/24 12:44:03;;;;;;;48.03;31.50;;;;;;;;;;4993234;28;20085;-80
2022/03/24 12:46:36;;;;;;;53.50;32.00;;;;;;;;;;5000579;28;20040;-80
2022/03/24 12:49:11;;;;;;;43.50;30.10;;;;;;;;;;4984797;28;20030;-80
2022/03/24 12:51:51;;;;;;;46.08;31.50;;;;;;;;;;4981587;28;20026;-80
2022/03/24 12:54:19;;;;;;;52.75;31.70;;;;;;;;;;4998384;28;20018;-80
2022/03/24 12:56:45;;;;;;;54.47;32.88;;;;;;;;;;4997372;28;20429;-80
2022/03/24 12:59:12;;;;;;;53.05;33.58;;;;;;;;;;4998903;28;20494;-80
2022/03/24 13:01:39;;;;;;;50.55;30.30;;;;;;;;;;4998083;28;20022;-80
2022/03/24 13:04:07;;;;;;;52.15;29.67;;;;;;;;;;4998843;28;20037;-80
2022/03/24 13:06:37;;;;;;;48.78;29.38;;;;;;;;;;4999151;28;20034;-80
2022/03/24 13:09:16;;;;;;;45.88;30.80;;;;;;;;;;5001693;28;20105;-80
2022/03/24 13:11:56;;;;;;;52.17;30.83;;;;;;;;;;4984644;28;20093;-80
2022/03/24 13:14:23;;;;;;;50.13;30.52;;;;;;;;;;4987296;28;20124;-80
2022/03/24 13:17:19;;;;;;;52.22;31.40;;;;;;;;;;5000596;28;20117;-80
2022/03/24 13:19:46;;;;;;;;;;;;;;;;;;4967780;28;20446;-80
2022/03/24 13:22:17;;;;;;;47.42;29.85;;;;;;;;;;4997279;28;19914;-80
2022/03/24 13:24:43;;;;;;;46.78;31.00;;;;;;;;;;4998173;28;20610;-80
2022/03/24 13:27:09;;;;;;;46.15;32.42;;;;;;;;;;4984280;28;20483;-80
2022/03/24 13:29:40;;;;;;;51.35;32.22;;;;;;;;;;4981350;28;20538;-79
2022/03/24 13:32:10;;;;;;;56.33;32.00;;;;;;;;;;4983496;28;20049;-80
2022/03/24 13:34:36;;;;;;;49.13;31.17;;;;;;;;;;4983290;28;20072;-80
2022/03/24 13:37:12;;;;;;;54.80;33.92;;;;;;;;;;4997889;28;20501;-80
2022/03/24 13:39:38;;;;;;;53.30;32.42;;;;;;;;;;4986570;28;20429;-80
2022/03/24 13:42:08;;;;;;;54.70;34.78;;;;;;;;;;5000511;28;20654;-80
2022/03/24 13:44:35;;;;;;;50.45;34.83;;;;;;;;;;4996168;28;20033;-81
2022/03/24 13:47:04;;;;;;;58.13;35.65;;;;;;;;;;4998899;28;20523;-81
2022/03/24 13:49:31;;;;;;;52.90;35.35;;;;;;;;;;4986006;28;20061;-81
2022/03/24 13:51:57;;;;;;;55.30;36.20;;;;;;;;;;5002132;28;20037;-81
2022/03/24 13:54:24;;;;;;;55.05;35.25;;;;;;;;;;5001702;28;20477;-81
2022/03/24 13:56:51;;;;;;;57.42;37.50;;;;;;;;;;4987047;28;20048;-81
2022/03/24 13:59:24;;;;;;;59.17;37.88;;;;;;;;;;4998826;28;20529;-81
2022/03/24 14:01:57;;;;;;;59.35;36.70;;;;;;;;;;4986975;28;20481;-80
2022/03/24 14:04:24;;;;;;;66.10;39.05;;;;;;;;;;5003556;28;20042;-80
2022/03/24 14:07:03;;;;;;;60.30;40.05;;;;;;;;;;4996015;28;20519;-80
2022/03/24 14:09:29;;;;;;;72.32;42.08;;;;;;;;;;5004572;28;20041;-81
2022/03/24 14:12:02;;;;;;;71.65;41.10;;;;;;;;;;4988869;28;21304;-81
2022/03/24 14:14:28;;;;;;;67.05;40.45;;;;;;;;;;5002067;28;20121;-80
2022/03/24 14:16:54;;;;;;;61.50;40.20;;;;;;;;;;4983219;28;20564;-80
2022/03/24 14:19:26;;;;;;;61.33;40.03;;;;;;;;;;5004026;28;20101;-80
2022/03/24 14:21:53;;;;;;;63.35;40.65;;;;;;;;;;5005653;28;20050;-80
2022/03/24 14:24:29;;;;;;;57.55;37.92;;;;;;;;;;4990318;28;20038;-81